Bookmark and Share
Track history (hours):
 

Wilson Maas

Last reported at 2014-Apr-22 08:33 UTC. Time now 2014-Apr-24 09:28 UTC.
Position N 59°07' E 010°59'.

Length 75 m; draft 4.3 m.

Type: Cargo ship. MMSI: 314217000.

NotesDate/timePositionNaut miles runAvg speedWind from/ knotsBaromVisibWave heightAir tempDewpointWater temp
2014-Apr-22 08:33N 59°07' E 010°59'370 9.2
2014-Apr-20 16:18N 53°57' E 004°54'9 8.5
2014-Apr-20 15:13N 53°48' E 004°52'6 8.5
2014-Apr-20 14:33N 53°42' E 004°50'9 8.4
2014-Apr-20 13:33N 53°34' E 004°48'8 8.5
2014-Apr-20 12:33N 53°26' E 004°43'9 9.0
2014-Apr-20 11:33N 53°18' E 004°37'9 8.8
2014-Apr-20 10:33N 53°10' E 004°30'9 9.5
2014-Apr-20 09:33N 53°02' E 004°23'10 9.8
2014-Apr-20 08:33N 52°53' E 004°15'10 9.9
2014-Apr-20 07:33N 52°45' E 004°06'10 9.6
2014-Apr-20 06:33N 52°37' E 003°57'1310.2
2014-Apr-20 05:17N 52°24' E 003°53'710.0
2014-Apr-20 04:33N 52°17' E 003°52'10 9.7
2014-Apr-20 03:33N 52°07' E 003°55'9 9.3
2014-Apr-20 02:33N 51°60' E 004°03'10 9.6
2014-Apr-20 01:33N 51°54' E 004°16'5 5.2
2014-Apr-20 00:31N 51°55' E 004°25'0 0.0
2014-Apr-19 23:31N 51°55' E 004°25'0 0.0
2014-Apr-19 22:31N 51°55' E 004°25'0 0.0
2014-Apr-19 21:31N 51°55' E 004°25'0 0.0
2014-Apr-19 20:31N 51°55' E 004°25'0 0.0
2014-Apr-19 19:31N 51°55' E 004°25'0 0.0
2014-Apr-19 18:25N 51°55' E 004°25'0 0.0
2014-Apr-19 17:31N 51°55' E 004°25'0 0.0
2014-Apr-19 16:31N 51°55' E 004°25'0 0.0
2014-Apr-19 15:25N 51°55' E 004°25'0 0.0
2014-Apr-19 14:31N 51°55' E 004°25'0 0.0
2014-Apr-19 13:31N 51°55' E 004°25'0 0.0
2014-Apr-19 12:31N 51°55' E 004°25'0 0.0
2014-Apr-19 11:28N 51°55' E 004°25'0 0.0
2014-Apr-19 10:31N 51°55' E 004°25'0 0.0
2014-Apr-19 09:31N 51°55' E 004°25'0 0.0
2014-Apr-19 08:31N 51°55' E 004°25'0 0.0
2014-Apr-19 07:31N 51°55' E 004°25'0 0.0
2014-Apr-19 06:31N 51°55' E 004°25'0 0.0
2014-Apr-19 05:32N 51°55' E 004°25'0 0.0
2014-Apr-19 04:31N 51°55' E 004°25'0 0.0
2014-Apr-19 03:25N 51°55' E 004°25'0 0.0
2014-Apr-19 02:31N 51°55' E 004°25'0 0.0
2014-Apr-19 01:31N 51°55' E 004°25'0 0.0
2014-Apr-19 00:31N 51°55' E 004°25'0 0.0
2014-Apr-18 23:28N 51°55' E 004°25'0 0.0
2014-Apr-18 22:31N 51°55' E 004°25'0 0.0
2014-Apr-18 21:28N 51°55' E 004°25'0 0.0
2014-Apr-18 20:31N 51°55' E 004°25'0 0.0
2014-Apr-18 19:31N 51°55' E 004°25'0 0.0
2014-Apr-18 18:28N 51°55' E 004°25'0 0.0
2014-Apr-18 17:31N 51°55' E 004°25'1 0.5
2014-Apr-18 16:33N 51°54' E 004°25'2 1.9
2014-Apr-18 15:33N 51°54' E 004°28'0 0.0
2014-Apr-18 14:33N 51°54' E 004°28'0 0.0
2014-Apr-18 13:27N 51°54' E 004°28'0 0.0
2014-Apr-18 12:33N 51°54' E 004°28'0 0.0
2014-Apr-18 11:21N 51°54' E 004°28'0 0.0
2014-Apr-18 10:33N 51°54' E 004°28'0 0.0
2014-Apr-18 09:33N 51°54' E 004°28'1 1.2
2014-Apr-18 08:34N 51°54' E 004°26'1 1.0
2014-Apr-18 07:33N 51°55' E 004°25'0 0.0
2014-Apr-18 06:26N 51°55' E 004°25'0 0.2
2014-Apr-18 05:32N 51°55' E 004°25'0 0.0
2014-Apr-18 04:33N 51°55' E 004°25'2 2.0
2014-Apr-18 03:33N 51°54' E 004°28'0 0.2
2014-Apr-18 02:31N 51°54' E 004°28'0 0.0
2014-Apr-18 01:28N 51°54' E 004°28'0 0.0
2014-Apr-18 00:31N 51°54' E 004°28'0 0.0
2014-Apr-17 23:31N 51°54' E 004°28'165165.5
2014-Apr-17 22:31N 51°54' E 000°00'165164.6
2014-Apr-17 21:31N 51°54' E 004°28'0 0.0
2014-Apr-17 20:31N 51°54' E 004°28'0 0.0
2014-Apr-17 19:28N 51°54' E 004°28'0 0.0
2014-Apr-17 18:25N 51°54' E 004°28'0 0.0
2014-Apr-17 17:31N 51°54' E 004°28'0 0.0
2014-Apr-17 16:28N 51°54' E 004°28'0 0.0
2014-Apr-17 15:28N 51°54' E 004°28'0 0.0
2014-Apr-17 14:28N 51°54' E 004°28'0 0.0
2014-Apr-17 13:31N 51°54' E 004°28'0 0.0
2014-Apr-17 12:28N 51°54' E 004°28'0 0.0
2014-Apr-17 11:22N 51°54' E 004°28'0 0.0
2014-Apr-17 10:25N 51°54' E 004°28'0 0.0
2014-Apr-17 09:31N 51°54' E 004°28'0 0.0
2014-Apr-17 08:31N 51°54' E 004°28'0 0.0
2014-Apr-17 07:31N 51°54' E 004°28'2 2.4
2014-Apr-17 06:33N 51°54' E 004°24'10 9.4
2014-Apr-17 05:29N 51°58' E 004°09'1010.6
2014-Apr-17 04:33N 52°01' E 003°54'8 8.5
2014-Apr-17 03:33N 52°08' E 003°46'8 8.3
2014-Apr-17 02:33N 52°16' E 003°47'9 8.8
2014-Apr-17 01:33N 52°25' E 003°50'1010.0
2014-Apr-17 00:33N 52°35' E 003°53'1110.7
2014-Apr-16 23:34N 52°45' E 003°56'1111.1
2014-Apr-16 22:34N 52°56' E 003°60'1110.8
2014-Apr-16 21:33N 53°04' E 004°13'1010.4
2014-Apr-16 20:34N 53°11' E 004°26'339 9.4
2014-Apr-15 08:34N 58°49' E 005°05'10 9.3
2014-Apr-15 07:32N 58°57' E 004°56'9 9.6
2014-Apr-15 06:34N 59°06' E 004°49'  

Dump ship's entire track history

sailing weather and tide predictions

Wilson Maas — 8PSZ — position and weather